Alto Paraiso de Goias, Brazil
Current Conditions -  °F | °C
As of 10:00 PM on Friday 24 Oct 2014 (Local Time) from SBBR Reporting Station
Broken Clouds Broken Clouds  
Wind Chill: 26°   Ceiling: 10000
Heat Index: 27°   Visibility: 6mi
Dew Point: 16°   Wind: 6mph
Humidity: 54%   Direction: 200°SSW
Pressure: 30.03"   Gusts: NA
Location:  14.12°S, 47.52°W
Report Text: SBBR 250000Z 20005KT 9999 FEW040 BKN100 26/16 Q1017
Loading
Personal Weather Stations






























Interactive Weather Map
Tropical Storm Tracking
New forecast layout! Learn more

10-Day Weather Forecast

Advertisements
Track Severe Weather on mobile